Time;durP1;ratioP1;P1;durP2;ratioP2;P2;SDS_P1;SDS_P2;PMS_P1;PMS_P2;Temp;Humidity;BMP_temperature;BMP_pressure;BME280_temperature;BME280_humidity;BME280_pressure;Samples;Min_cycle;Max_cycle;Signal;HPM_P1;HPM_P2
2023/06/02 00:00:39;;;;;;;8.17;3.70;;;11.20;99.90;;;;;;4189562;28;20274;-74
2023/06/02 00:02:41;;;;;;;6.57;3.30;;;11.20;99.90;;;;;;4189748;28;20235;-75
2023/06/02 00:04:44;;;;;;;7.87;3.47;;;11.10;99.90;;;;;;4188402;28;20224;-74
2023/06/02 00:06:47;;;;;;;8.80;3.63;;;11.10;99.90;;;;;;4190224;28;20804;-75
2023/06/02 00:08:50;;;;;;;10.40;3.40;;;11.10;99.90;;;;;;4189460;28;20629;-75
2023/06/02 00:10:52;;;;;;;9.53;3.50;;;11.10;99.90;;;;;;4190503;28;20217;-76
2023/06/02 00:12:54;;;;;;;11.10;4.17;;;11.10;99.90;;;;;;4188220;28;20232;-76
2023/06/02 00:14:56;;;;;;;10.10;3.10;;;11.10;99.90;;;;;;4189101;28;20221;-75
2023/06/02 00:17:00;;;;;;;7.37;3.47;;;11.00;99.90;;;;;;4188014;28;20243;-75
2023/06/02 00:19:02;;;;;;;9.73;3.40;;;11.00;99.90;;;;;;4190088;28;20216;-75
2023/06/02 00:21:06;;;;;;;11.30;3.80;;;11.00;99.90;;;;;;4191122;28;20215;-75
2023/06/02 00:23:09;;;;;;;9.57;3.43;;;10.90;99.90;;;;;;4187388;28;20601;-75
2023/06/02 00:25:12;;;;;;;10.27;3.47;;;10.90;99.90;;;;;;4190045;28;20207;-74
2023/06/02 00:27:16;;;;;;;9.87;3.13;;;10.90;99.90;;;;;;4190982;28;20201;-76
2023/06/02 00:29:25;;;;;;;8.20;3.23;;;10.80;99.90;;;;;;4190860;28;20289;-75
2023/06/02 00:31:25;;;;;;;6.90;3.30;;;10.90;99.90;;;;;;4188343;28;21008;-76
2023/06/02 00:33:27;;;;;;;7.63;3.40;;;10.80;99.90;;;;;;4190789;28;20256;-75
2023/06/02 00:35:30;;;;;;;6.47;2.90;;;10.80;99.90;;;;;;4187679;28;20207;-75
2023/06/02 00:37:32;;;;;;;11.27;3.27;;;10.80;99.90;;;;;;4189618;28;20229;-75
2023/06/02 00:39:34;;;;;;;8.07;2.93;;;10.70;99.90;;;;;;4186986;28;20216;-75
2023/06/02 00:41:38;;;;;;;8.17;2.93;;;10.70;99.90;;;;;;4188756;28;20280;-75
2023/06/02 00:43:39;;;;;;;7.10;3.30;;;10.70;99.90;;;;;;4186417;28;20215;-74
2023/06/02 00:45:41;;;;;;;11.43;3.30;;;10.70;99.90;;;;;;4189099;28;20224;-75
2023/06/02 00:47:43;;;;;;;9.43;3.70;;;10.70;99.90;;;;;;4189784;28;20826;-75
2023/06/02 00:49:45;;;;;;;9.33;3.17;;;10.70;99.90;;;;;;4190644;28;20297;-76
2023/06/02 00:51:49;;;;;;;5.97;2.97;;;10.70;99.90;;;;;;4197437;28;20231;-74
2023/06/02 00:53:51;;;;;;;10.73;3.57;;;10.60;99.90;;;;;;4200786;28;20289;-75
2023/06/02 00:55:53;;;;;;;6.77;3.20;;;10.60;99.90;;;;;;4197139;28;20242;-75
2023/06/02 00:57:58;;;;;;;5.90;3.00;;;10.60;99.90;;;;;;4197488;28;20627;-75
2023/06/02 01:00:01;;;;;;;7.67;3.20;;;10.60;99.90;;;;;;4198993;28;20233;-75
2023/06/02 01:02:03;;;;;;;9.50;3.33;;;10.60;99.90;;;;;;4191165;28;20241;-75
2023/06/02 01:04:07;;;;;;;7.87;3.03;;;10.50;99.90;;;;;;4187235;28;20253;-75
2023/06/02 01:06:09;;;;;;;6.67;2.93;;;10.50;99.90;;;;;;4191102;28;20268;-75
2023/06/02 01:08:13;;;;;;;4.80;2.87;;;10.40;99.90;;;;;;4186823;28;20206;-76
2023/06/02 01:10:16;;;;;;;13.70;3.60;;;10.40;99.90;;;;;;4188955;28;21836;-76
2023/06/02 01:12:19;;;;;;;10.10;3.20;;;10.30;99.90;;;;;;4188541;28;20219;-76
2023/06/02 01:14:23;;;;;;;5.37;2.70;;;10.30;99.90;;;;;;4190195;28;20365;-75
2023/06/02 01:16:26;;;;;;;12.30;3.50;;;10.30;99.90;;;;;;4188145;28;20214;-75
2023/06/02 01:18:29;;;;;;;8.90;3.40;;;10.30;99.90;;;;;;4189193;28;20211;-75
2023/06/02 01:20:33;;;;;;;9.40;3.37;;;10.30;99.90;;;;;;4187864;28;20221;-75
2023/06/02 01:22:40;;;;;;;8.13;3.33;;;10.30;99.90;;;;;;4188542;28;20254;-74
2023/06/02 01:24:47;;;;;;;9.10;3.40;;;10.30;99.90;;;;;;4186001;28;20210;-74
2023/06/02 01:26:48;;;;;;;9.93;3.30;;;10.20;99.90;;;;;;4192226;28;20211;-76
2023/06/02 01:28:50;;;;;;;12.20;3.30;;;10.20;99.90;;;;;;4193026;28;20214;-76
2023/06/02 01:30:59;;;;;;;8.63;3.10;;;10.30;99.90;;;;;;4192236;28;20309;-74
2023/06/02 01:33:08;;;;;;;7.77;2.90;;;10.30;99.90;;;;;;4190969;28;20300;-74
2023/06/02 01:35:13;;;;;;;7.00;2.70;;;10.30;99.90;;;;;;4190152;28;20293;-74
2023/06/02 01:37:15;;;;;;;9.53;3.33;;;10.30;99.90;;;;;;4193524;28;20226;-75
2023/06/02 01:39:18;;;;;;;8.47;3.27;;;10.30;99.90;;;;;;4188827;28;20300;-76
2023/06/02 01:41:22;;;;;;;7.37;2.80;;;10.30;99.90;;;;;;4190986;28;20307;-76
2023/06/02 01:43:24;;;;;;;8.30;3.17;;;10.30;99.90;;;;;;4190342;28;20227;-76
2023/06/02 01:45:28;;;;;;;5.93;2.43;;;10.30;99.90;;;;;;4192526;28;20618;-75
2023/06/02 01:47:30;;;;;;;6.93;2.43;;;10.30;99.90;;;;;;4189470;28;20211;-76
2023/06/02 01:49:32;;;;;;;6.67;3.13;;;10.30;99.90;;;;;;4190563;28;20216;-75
2023/06/02 01:51:34;;;;;;;8.07;2.70;;;10.40;99.90;;;;;;4193640;28;20230;-75
2023/06/02 01:53:36;;;;;;;6.63;2.80;;;10.40;99.90;;;;;;4190198;28;20295;-76
2023/06/02 01:55:39;;;;;;;10.13;3.10;;;10.40;99.90;;;;;;4191126;28;20746;-75
2023/06/02 01:57:42;;;;;;;7.40;2.80;;;10.40;99.90;;;;;;4192746;28;20698;-76
2023/06/02 01:59:44;;;;;;;8.40;2.80;;;10.40;99.90;;;;;;4193008;28;20206;-75
2023/06/02 02:01:45;;;;;;;8.87;2.60;;;10.40;99.90;;;;;;4190796;28;20266;-75
2023/06/02 02:03:50;;;;;;;6.80;2.83;;;10.50;99.90;;;;;;4190446;28;20726;-75
2023/06/02 02:05:51;;;;;;;8.00;2.90;;;10.40;99.90;;;;;;4191114;28;20239;-75
2023/06/02 02:07:53;;;;;;;7.57;2.60;;;10.40;99.90;;;;;;4191383;28;20751;-75
2023/06/02 02:09:56;;;;;;;5.13;2.60;;;10.50;99.90;;;;;;4189969;28;20214;-75
2023/06/02 02:11:58;;;;;;;8.93;3.23;;;10.40;99.90;;;;;;4190686;28;20261;-75
2023/06/02 02:14:04;;;;;;;9.73;3.17;;;10.40;99.90;;;;;;4189386;28;20221;-74
2023/06/02 02:16:06;;;;;;;6.93;3.10;;;10.40;99.90;;;;;;4189857;28;20215;-74
2023/06/02 02:18:08;;;;;;;8.73;2.73;;;10.40;99.90;;;;;;4191812;28;20226;-75
2023/06/02 02:20:11;;;;;;;6.43;2.50;;;10.40;99.90;;;;;;4190445;28;20241;-75
2023/06/02 02:22:13;;;;;;;8.20;2.90;;;10.40;99.90;;;;;;4192254;28;20321;-75
2023/06/02 02:24:16;;;;;;;6.90;2.30;;;10.40;99.90;;;;;;4190646;28;20207;-75
2023/06/02 02:26:18;;;;;;;10.00;2.80;;;10.40;99.90;;;;;;4191899;28;20207;-74
2023/06/02 02:28:21;;;;;;;9.73;2.77;;;10.40;99.90;;;;;;4189355;28;20216;-75
2023/06/02 02:30:26;;;;;;;9.43;2.83;;;10.40;99.90;;;;;;4191528;28;20219;-76
2023/06/02 02:32:29;;;;;;;8.17;2.87;;;10.40;99.90;;;;;;4192180;28;20252;-75
2023/06/02 02:34:33;;;;;;;8.13;2.80;;;10.40;99.90;;;;;;4190139;28;20255;-76
2023/06/02 02:36:35;;;;;;;6.63;2.80;;;10.40;99.90;;;;;;4191034;28;20631;-75
2023/06/02 02:38:36;;;;;;;9.57;2.73;;;10.40;99.90;;;;;;4191908;28;20236;-76
2023/06/02 02:40:38;;;;;;;8.23;2.67;;;10.40;99.90;;;;;;4188188;28;20814;-74
2023/06/02 02:42:40;;;;;;;8.13;2.67;;;10.40;99.90;;;;;;4192898;28;20231;-74
2023/06/02 02:44:42;;;;;;;7.27;2.60;;;10.40;99.90;;;;;;4190806;28;20278;-74
2023/06/02 02:46:45;;;;;;;6.83;2.37;;;10.40;99.90;;;;;;4188412;28;20314;-75
2023/06/02 02:48:47;;;;;;;5.80;2.50;;;10.40;99.90;;;;;;4191405;28;20219;-76
2023/06/02 02:50:50;;;;;;;6.20;2.40;;;10.40;99.90;;;;;;4187769;28;20207;-75
2023/06/02 02:52:52;;;;;;;6.43;2.37;;;10.30;99.90;;;;;;4188705;28;20314;-76
2023/06/02 02:54:56;;;;;;;9.17;2.23;;;10.30;99.90;;;;;;4189983;28;20217;-75
2023/06/02 02:56:58;;;;;;;9.27;2.50;;;10.30;99.90;;;;;;4189969;28;20736;-75
2023/06/02 02:59:00;;;;;;;9.43;2.40;;;10.30;99.90;;;;;;4190206;28;20327;-75
2023/06/02 03:01:04;;;;;;;7.93;2.20;;;10.30;99.90;;;;;;4189625;28;21051;-75
2023/06/02 03:03:07;;;;;;;8.20;2.37;;;10.30;99.90;;;;;;4190934;28;20229;-75
2023/06/02 03:05:13;;;;;;;8.03;2.40;;;10.30;99.90;;;;;;4188262;28;20210;-74
2023/06/02 03:07:14;;;;;;;8.77;2.77;;;10.30;99.90;;;;;;4191287;28;20265;-75
2023/06/02 03:09:16;;;;;;;12.67;2.90;;;10.30;99.90;;;;;;4191048;28;20303;-75
2023/06/02 03:11:18;;;;;;;6.10;2.17;;;10.30;99.90;;;;;;4186946;28;20234;-75
2023/06/02 03:13:20;;;;;;;11.70;2.60;;;10.30;99.90;;;;;;4191250;28;20663;-75
2023/06/02 03:15:22;;;;;;;5.50;2.00;;;10.20;99.90;;;;;;4189497;28;20214;-75
2023/06/02 03:17:24;;;;;;;7.87;2.07;;;10.30;99.90;;;;;;4190062;28;20225;-74
2023/06/02 03:19:27;;;;;;;8.07;2.37;;;10.20;99.90;;;;;;4190266;28;20297;-75
2023/06/02 03:21:31;;;;;;;6.97;2.67;;;10.30;99.90;;;;;;4196751;28;20236;-74
2023/06/02 03:23:33;;;;;;;12.63;2.77;;;10.30;99.90;;;;;;4201313;28;20588;-75
2023/06/02 03:25:35;;;;;;;8.60;2.63;;;10.20;99.90;;;;;;4197372;28;20208;-75
2023/06/02 03:27:37;;;;;;;7.37;2.23;;;10.30;99.90;;;;;;4190339;28;20303;-75
2023/06/02 03:29:38;;;;;;;13.90;2.70;;;10.30;99.90;;;;;;4190197;28;20210;-74
2023/06/02 03:31:41;;;;;;;11.03;2.60;;;10.30;99.90;;;;;;4190341;28;20235;-74
2023/06/02 03:33:43;;;;;;;6.50;1.97;;;10.20;99.90;;;;;;4184684;28;20203;-75
2023/06/02 03:35:46;;;;;;;7.70;2.17;;;10.30;99.90;;;;;;4190450;28;20302;-75
2023/06/02 03:37:48;;;;;;;8.30;2.33;;;10.30;99.90;;;;;;4188358;28;20250;-75
2023/06/02 03:39:50;;;;;;;8.53;2.50;;;10.30;99.90;;;;;;4188078;28;20600;-75
2023/06/02 03:41:52;;;;;;;11.67;2.70;;;10.30;99.90;;;;;;4192685;28;20753;-75
2023/06/02 03:43:54;;;;;;;8.80;2.30;;;10.20;99.90;;;;;;4191523;28;20208;-75
2023/06/02 03:45:56;;;;;;;7.30;2.00;;;10.30;99.90;;;;;;4190067;28;20214;-76
2023/06/02 03:47:58;;;;;;;8.40;2.20;;;10.20;99.90;;;;;;4188042;28;20230;-75
2023/06/02 03:49:59;;;;;;;7.60;2.20;;;10.30;99.90;;;;;;4187514;28;20302;-75
2023/06/02 03:52:03;;;;;;;11.93;2.70;;;10.30;99.90;;;;;;4188976;28;20333;-76
2023/06/02 03:54:05;;;;;;;7.77;2.33;;;10.30;99.90;;;;;;4187012;28;20200;-76
2023/06/02 03:56:09;;;;;;;7.53;2.23;;;10.30;99.90;;;;;;4190574;28;20206;-76
2023/06/02 03:58:12;;;;;;;7.47;2.77;;;10.30;99.90;;;;;;4189773;28;20596;-76
2023/06/02 04:00:14;;;;;;;11.97;2.27;;;10.30;99.90;;;;;;4192329;28;20207;-76
2023/06/02 04:02:16;;;;;;;5.60;1.83;;;10.30;99.90;;;;;;4193420;28;20249;-77
2023/06/02 04:04:18;;;;;;;7.90;2.00;;;10.30;99.90;;;;;;4185460;28;20295;-76
2023/06/02 04:06:21;;;;;;;9.10;2.40;;;10.30;99.90;;;;;;4188813;28;20293;-76
2023/06/02 04:08:24;;;;;;;8.70;2.50;;;10.30;99.90;;;;;;4188754;28;20209;-76
2023/06/02 04:10:28;;;;;;;9.20;2.73;;;10.30;99.90;;;;;;4188379;28;20354;-76
2023/06/02 04:12:29;;;;;;;9.93;2.53;;;10.40;99.90;;;;;;4191951;28;20222;-75
2023/06/02 04:14:32;;;;;;;4.87;2.00;;;10.40;99.90;;;;;;4186378;28;20225;-75
2023/06/02 04:16:34;;;;;;;10.27;2.30;;;10.40;99.90;;;;;;4188818;28;20206;-73
2023/06/02 04:18:38;;;;;;;12.47;2.97;;;10.30;99.90;;;;;;4186140;28;20306;-76
2023/06/02 04:20:40;;;;;;;10.80;2.87;;;10.40;99.90;;;;;;4187461;28;20231;-76
2023/06/02 04:22:42;;;;;;;8.57;2.33;;;10.40;99.90;;;;;;4189041;28;20234;-75
2023/06/02 04:24:46;;;;;;;9.43;2.43;;;10.40;99.90;;;;;;4192737;28;20210;-75
2023/06/02 04:26:48;;;;;;;8.60;2.30;;;10.40;99.90;;;;;;4190073;28;20656;-75
2023/06/02 04:28:51;;;;;;;5.57;1.83;;;10.40;99.90;;;;;;4190475;28;20769;-75
2023/06/02 04:30:54;;;;;;;9.00;2.27;;;10.40;99.90;;;;;;4189584;28;20206;-75
2023/06/02 04:32:56;;;;;;;7.77;2.10;;;10.40;99.90;;;;;;4190106;28;20707;-75
2023/06/02 04:34:58;;;;;;;9.10;2.20;;;10.40;99.90;;;;;;4191569;28;20697;-75
2023/06/02 04:37:00;;;;;;;8.17;2.67;;;10.40;99.90;;;;;;4188164;28;20670;-75
2023/06/02 04:39:02;;;;;;;11.30;2.57;;;10.50;99.90;;;;;;4187476;28;20359;-75
2023/06/02 04:41:08;;;;;;;7.53;2.30;;;10.50;99.90;;;;;;4190751;28;20314;-75
2023/06/02 04:43:10;;;;;;;13.03;2.80;;;10.50;99.90;;;;;;4188907;28;20628;-75
2023/06/02 04:45:12;;;;;;;10.50;2.53;;;10.60;99.90;;;;;;4188367;28;20960;-75
2023/06/02 04:47:14;;;;;;;8.77;2.33;;;10.60;99.90;;;;;;4187952;28;20207;-75
2023/06/02 04:49:16;;;;;;;12.47;2.77;;;10.60;99.90;;;;;;4186227;28;20608;-75
2023/06/02 04:51:19;;;;;;;11.77;3.00;;;10.60;99.90;;;;;;4189667;28;20215;-75
2023/06/02 04:53:21;;;;;;;6.70;2.40;;;10.70;99.90;;;;;;4189397;28;20220;-75
2023/06/02 04:55:22;;;;;;;13.87;2.67;;;10.70;99.90;;;;;;4188846;28;20553;-76
2023/06/02 04:57:26;;;;;;;8.33;2.03;;;10.70;99.90;;;;;;4189453;28;20240;-76
2023/06/02 04:59:28;;;;;;;8.37;2.20;;;10.80;99.90;;;;;;4185849;28;20237;-76
2023/06/02 05:01:30;;;;;;;12.60;2.60;;;10.90;99.90;;;;;;4187671;28;20243;-76
2023/06/02 05:03:32;;;;;;;12.07;2.67;;;10.90;99.90;;;;;;4192627;28;20214;-76
2023/06/02 05:05:34;;;;;;;13.57;4.17;;;10.90;99.90;;;;;;4193045;28;20238;-73
2023/06/02 05:07:36;;;;;;;12.80;3.30;;;10.90;99.90;;;;;;4192207;28;20213;-73
2023/06/02 05:09:38;;;;;;;14.23;3.17;;;10.90;99.90;;;;;;4190769;28;20208;-74
2023/06/02 05:11:40;;;;;;;9.30;2.50;;;11.00;99.90;;;;;;4191145;28;20263;-75
2023/06/02 05:13:45;;;;;;;10.93;2.50;;;11.00;99.90;;;;;;4194727;28;20290;-74
2023/06/02 05:15:47;;;;;;;10.57;2.43;;;11.00;99.90;;;;;;4190648;28;20249;-74
2023/06/02 05:17:49;;;;;;;10.60;2.57;;;11.10;99.90;;;;;;4190540;28;21011;-74
2023/06/02 05:19:53;;;;;;;14.97;2.00;;;11.10;99.90;;;;;;4194946;28;20614;-74
2023/06/02 05:21:55;;;;;;;8.77;2.07;;;11.10;99.90;;;;;;4191879;28;20319;-74
2023/06/02 05:23:58;;;;;;;11.50;2.77;;;11.20;99.90;;;;;;4191352;28;20266;-74
2023/06/02 05:26:00;;;;;;;11.93;2.67;;;11.20;99.90;;;;;;4193193;28;20240;-74
2023/06/02 05:28:02;;;;;;;14.53;2.70;;;11.20;99.90;;;;;;4193275;28;20644;-74
2023/06/02 05:30:06;;;;;;;10.97;2.50;;;11.20;99.90;;;;;;4190868;28;20597;-74
2023/06/02 05:32:09;;;;;;;10.43;2.43;;;11.30;99.90;;;;;;4197302;28;20259;-74
2023/06/02 05:34:11;;;;;;;11.70;2.53;;;11.30;99.90;;;;;;4192232;28;21177;-74
2023/06/02 05:36:13;;;;;;;11.80;2.40;;;11.30;99.90;;;;;;4195072;28;20327;-75
2023/06/02 05:38:17;;;;;;;11.33;2.37;;;11.40;99.90;;;;;;4194435;28;20651;-75
2023/06/02 05:40:21;;;;;;;8.90;2.37;;;11.40;99.90;;;;;;4198859;28;20240;-77
2023/06/02 05:42:23;;;;;;;7.33;1.97;;;11.40;99.90;;;;;;4199662;28;20259;-74
2023/06/02 05:44:25;;;;;;;14.13;2.83;;;11.40;99.90;;;;;;4199043;28;20232;-73
2023/06/02 05:46:29;;;;;;;11.50;2.67;;;11.40;99.90;;;;;;4185535;28;20301;-73
2023/06/02 05:48:31;;;;;;;14.10;3.33;;;11.50;99.90;;;;;;4190209;28;20206;-73
2023/06/02 05:50:33;;;;;;;18.97;4.90;;;11.50;99.90;;;;;;4200582;28;20206;-73
2023/06/02 05:52:35;;;;;;;18.07;4.87;;;11.60;99.90;;;;;;4199973;28;20324;-73
2023/06/02 05:54:37;;;;;;;12.93;3.57;;;11.70;99.90;;;;;;4198909;28;20321;-73
2023/06/02 05:56:39;;;;;;;11.47;2.90;;;11.70;99.90;;;;;;4195057;28;20213;-73
2023/06/02 05:58:41;;;;;;;13.93;3.13;;;11.70;99.90;;;;;;4198425;28;20232;-74
2023/06/02 06:00:43;;;;;;;14.67;2.47;;;11.70;99.90;;;;;;4189044;28;20237;-73
2023/06/02 06:02:47;;;;;;;11.03;2.53;;;11.80;99.90;;;;;;4193227;28;20249;-73
2023/06/02 06:04:49;;;;;;;16.77;3.17;;;11.80;99.90;;;;;;4184068;28;20247;-73
2023/06/02 06:06:51;;;;;;;13.60;2.77;;;11.80;99.90;;;;;;4197927;28;20882;-73
2023/06/02 06:08:52;;;;;;;12.53;2.50;;;11.80;99.90;;;;;;4192148;28;20297;-74
2023/06/02 06:10:54;;;;;;;10.50;2.53;;;11.80;99.90;;;;;;4197034;28;20213;-75
2023/06/02 06:12:56;;;;;;;11.67;2.10;;;11.90;99.90;;;;;;4186950;28;20229;-74
2023/06/02 06:14:58;;;;;;;13.10;2.43;;;11.90;99.90;;;;;;4197932;28;20316;-74
2023/06/02 06:17:00;;;;;;;12.07;3.53;;;12.00;99.90;;;;;;4196446;28;20308;-73
2023/06/02 06:19:03;;;;;;;12.40;3.20;;;12.10;99.90;;;;;;4192822;28;20224;-74
2023/06/02 06:21:05;;;;;;;11.87;3.13;;;12.20;99.90;;;;;;4197457;28;20213;-75
2023/06/02 06:23:07;;;;;;;13.47;3.07;;;12.30;99.90;;;;;;4197971;28;20227;-74
2023/06/02 06:25:09;;;;;;;10.20;2.57;;;12.40;99.90;;;;;;4197534;28;20302;-74
2023/06/02 06:27:13;;;;;;;15.03;2.93;;;12.40;99.90;;;;;;4197305;28;20305;-74
2023/06/02 06:29:15;;;;;;;11.00;2.60;;;12.50;99.90;;;;;;4196159;28;20215;-74
2023/06/02 06:31:16;;;;;;;12.87;2.50;;;12.50;99.90;;;;;;4197520;28;20210;-75
2023/06/02 06:33:18;;;;;;;11.93;2.83;;;12.60;99.90;;;;;;4192142;28;20212;-74
2023/06/02 06:35:22;;;;;;;14.37;3.00;;;12.60;99.90;;;;;;4196713;28;20237;-74
2023/06/02 06:37:24;;;;;;;10.93;2.47;;;12.70;99.90;;;;;;4194327;28;20210;-74
2023/06/02 06:39:26;;;;;;;11.87;2.83;;;12.80;99.90;;;;;;4191057;28;20234;-73
2023/06/02 06:41:27;;;;;;;15.73;2.83;;;12.90;99.90;;;;;;4197264;28;20263;-74
2023/06/02 06:43:29;;;;;;;11.77;2.70;;;12.90;99.90;;;;;;4196382;28;20210;-74
2023/06/02 06:45:31;;;;;;;8.20;2.50;;;13.00;99.90;;;;;;4190141;28;20303;-74
2023/06/02 06:47:33;;;;;;;8.47;1.93;;;13.00;99.90;;;;;;4192516;28;20297;-73
2023/06/02 06:49:35;;;;;;;8.90;2.07;;;13.10;99.90;;;;;;4193246;28;20211;-74
2023/06/02 06:51:38;;;;;;;15.13;3.07;;;13.10;99.90;;;;;;4196139;28;20230;-74
2023/06/02 06:53:40;;;;;;;11.47;2.77;;;13.20;99.90;;;;;;4197065;28;20237;-74
2023/06/02 06:55:42;;;;;;;9.70;2.30;;;13.20;99.90;;;;;;4193753;28;20199;-74
2023/06/02 06:57:44;;;;;;;9.37;2.57;;;13.30;99.90;;;;;;4195081;28;20206;-74
2023/06/02 06:59:47;;;;;;;14.43;3.07;;;13.30;99.90;;;;;;4193415;28;20284;-74
2023/06/02 07:01:49;;;;;;;5.27;2.23;;;13.40;99.90;;;;;;4195862;28;20743;-74
2023/06/02 07:03:51;;;;;;;11.33;2.60;;;13.40;99.90;;;;;;4196561;28;20219;-74
2023/06/02 07:05:53;;;;;;;9.33;2.40;;;13.40;99.90;;;;;;4197011;28;20210;-75
2023/06/02 07:07:56;;;;;;;12.93;3.53;;;13.40;99.90;;;;;;4187217;28;20207;-75
2023/06/02 07:09:58;;;;;;;11.73;3.00;;;13.50;99.90;;;;;;4196764;28;20211;-75
2023/06/02 07:12:00;;;;;;;11.87;2.93;;;13.40;99.90;;;;;;4194251;28;20265;-73
2023/06/02 07:14:02;;;;;;;10.93;2.80;;;13.50;99.90;;;;;;4188261;28;20297;-74
2023/06/02 07:16:05;;;;;;;10.83;2.67;;;13.60;99.90;;;;;;4195144;28;20206;-73
2023/06/02 07:18:06;;;;;;;12.10;2.73;;;13.70;99.90;;;;;;4190615;28;20242;-73
2023/06/02 07:20:10;;;;;;;14.60;2.77;;;13.70;99.90;;;;;;4196143;28;20321;-73
2023/06/02 07:22:11;;;;;;;9.17;2.43;;;13.70;99.90;;;;;;4184179;28;20231;-73
2023/06/02 07:24:15;;;;;;;10.47;2.77;;;13.70;99.90;;;;;;4180980;28;20216;-73
2023/06/02 07:26:17;;;;;;;12.80;2.97;;;13.80;99.90;;;;;;4183682;28;20207;-74
2023/06/02 07:28:18;;;;;;;8.37;2.43;;;13.80;99.90;;;;;;4189952;28;20294;-73
2023/06/02 07:30:20;;;;;;;12.30;2.97;;;13.80;99.90;;;;;;4191840;28;20195;-74
2023/06/02 07:32:22;;;;;;;9.50;2.60;;;13.70;99.90;;;;;;4195841;28;20330;-75
2023/06/02 07:34:24;;;;;;;9.50;2.60;;;13.70;99.90;;;;;;4196730;28;20306;-73
2023/06/02 07:36:26;;;;;;;10.40;2.60;;;13.70;99.90;;;;;;4196137;28;20242;-73
2023/06/02 07:38:28;;;;;;;13.67;2.93;;;13.70;99.90;;;;;;4193667;28;20242;-73
2023/06/02 07:40:31;;;;;;;8.87;2.50;;;13.80;99.90;;;;;;4196603;28;20260;-72
2023/06/02 07:42:33;;;;;;;12.77;2.70;;;13.90;99.90;;;;;;4189753;28;20328;-73
2023/06/02 07:44:35;;;;;;;11.00;2.93;;;14.00;99.90;;;;;;4196659;28;20214;-73
2023/06/02 07:46:37;;;;;;;8.00;2.70;;;14.00;99.90;;;;;;4194682;28;20222;-72
2023/06/02 07:48:39;;;;;;;15.03;4.33;;;14.10;99.90;;;;;;4194129;28;20914;-74
2023/06/02 07:50:41;;;;;;;10.87;3.13;;;14.10;99.90;;;;;;4196722;28;20223;-72
2023/06/02 07:52:43;;;;;;;15.43;3.53;;;14.20;99.90;;;;;;4187998;28;20309;-74
2023/06/02 07:54:45;;;;;;;9.30;2.77;;;14.20;99.90;;;;;;4191009;28;20305;-72
2023/06/02 07:56:50;;;;;;;10.20;3.00;;;14.20;99.90;;;;;;4196340;28;20246;-72
2023/06/02 07:58:52;;;;;;;12.73;3.03;;;14.30;99.90;;;;;;4194412;28;20217;-73
2023/06/02 08:00:54;;;;;;;11.80;3.30;;;14.50;99.90;;;;;;4193439;28;20334;-73
2023/06/02 08:02:56;;;;;;;10.60;2.70;;;14.60;99.90;;;;;;4196146;28;20267;-73
2023/06/02 08:04:58;;;;;;;7.43;2.30;;;14.70;99.90;;;;;;4188609;28;20212;-72
2023/06/02 08:07:00;;;;;;;10.80;3.30;;;14.60;99.90;;;;;;4186545;28;20302;-72
2023/06/02 08:09:02;;;;;;;11.60;2.70;;;14.70;99.90;;;;;;4196418;28;20261;-73
2023/06/02 08:11:04;;;;;;;10.80;2.80;;;14.80;99.90;;;;;;4195940;28;20213;-72
2023/06/02 08:13:08;;;;;;;11.00;2.67;;;14.90;99.90;;;;;;4196012;28;20209;-73
2023/06/02 08:15:11;;;;;;;14.37;2.67;;;15.00;99.90;;;;;;4195074;28;20232;-73
2023/06/02 08:17:13;;;;;;;10.30;2.50;;;15.10;99.90;;;;;;4193970;28;20587;-72
2023/06/02 08:19:15;;;;;;;11.50;2.97;;;15.10;99.90;;;;;;4195333;28;20239;-73
2023/06/02 08:21:16;;;;;;;10.83;2.40;;;15.10;99.90;;;;;;4191339;28;20655;-73
2023/06/02 08:23:19;;;;;;;8.03;2.70;;;15.20;99.90;;;;;;4190626;28;20281;-73
2023/06/02 08:25:21;;;;;;;10.70;3.03;;;15.30;99.90;;;;;;4193706;28;20208;-72
2023/06/02 08:27:23;;;;;;;11.97;2.60;;;15.40;99.90;;;;;;4189189;28;20205;-72
2023/06/02 08:29:26;;;;;;;8.40;2.63;;;15.40;99.90;;;;;;4195706;28;20202;-72
2023/06/02 08:31:28;;;;;;;14.03;3.53;;;15.50;99.90;;;;;;4195322;28;20275;-73
2023/06/02 08:33:33;;;;;;;11.63;2.73;;;15.60;99.90;;;;;;4191687;28;20227;-73
2023/06/02 08:35:36;;;;;;;9.60;2.67;;;15.60;99.90;;;;;;4190646;28;20646;-73
2023/06/02 08:37:38;;;;;;;6.17;2.20;;;15.60;99.90;;;;;;4195012;28;20210;-72
2023/06/02 08:39:40;;;;;;;16.77;3.53;;;15.60;99.90;;;;;;4194481;28;20304;-72
2023/06/02 08:41:47;;;;;;;10.17;3.23;;;15.60;99.90;;;;;;4194392;28;20816;-72
2023/06/02 08:43:48;;;;;;;9.97;2.80;;;15.60;99.90;;;;;;4191699;28;20224;-72
2023/06/02 08:45:52;;;;;;;12.00;3.00;;;15.60;99.90;;;;;;4191621;28;20285;-72
2023/06/02 08:47:55;;;;;;;13.20;2.97;;;15.50;99.90;;;;;;4189257;28;20237;-73
2023/06/02 08:50:01;;;;;;;15.60;3.20;;;15.50;99.90;;;;;;4190305;28;20746;-72
2023/06/02 08:52:06;;;;;;;14.87;3.20;;;15.50;99.90;;;;;;4192366;28;20716;-73
2023/06/02 08:54:10;;;;;;;8.00;3.00;;;15.50;99.90;;;;;;4194633;28;20202;-72
2023/06/02 08:56:14;;;;;;;10.87;3.03;;;15.50;99.90;;;;;;4195243;28;20217;-72
2023/06/02 08:58:16;;;;;;;10.97;2.90;;;15.50;99.90;;;;;;4195189;28;20212;-73
2023/06/02 09:00:19;;;;;;;14.43;3.40;;;15.50;99.90;;;;;;4191938;28;20324;-74
2023/06/02 09:02:22;;;;;;;10.67;3.00;;;15.50;99.90;;;;;;4191609;28;20234;-71
2023/06/02 09:04:24;;;;;;;8.70;2.60;;;15.50;99.90;;;;;;4195107;28;20242;-72
2023/06/02 09:06:28;;;;;;;8.37;2.90;;;15.50;99.90;;;;;;4194787;28;20201;-72
2023/06/02 09:08:30;;;;;;;14.73;3.47;;;15.50;99.90;;;;;;4191247;28;20214;-72
2023/06/02 09:10:33;;;;;;;10.57;2.80;;;15.60;99.90;;;;;;4194919;28;20233;-72
2023/06/02 09:12:48;;;;;;;15.20;3.10;;;15.60;99.90;;;;;;4195447;28;20241;-72
2023/06/02 09:15:07;;;;;;;10.43;2.67;;;15.70;99.90;;;;;;4190184;28;20213;-72
2023/06/02 09:17:28;;;;;;;9.30;3.03;;;15.80;99.90;;;;;;4188160;28;20742;-72
2023/06/02 09:19:49;;;;;;;20.90;3.37;;;15.80;99.90;;;;;;4189460;28;20209;-73
2023/06/02 09:21:53;;;;;;;16.37;2.97;;;15.90;99.90;;;;;;4193446;28;20703;-73
2023/06/02 09:23:56;;;;;;;15.10;3.00;;;16.00;99.90;;;;;;4187592;28;20264;-75
2023/06/02 09:25:58;;;;;;;9.33;2.87;;;16.20;99.90;;;;;;4191317;28;20210;-73
2023/06/02 09:28:01;;;;;;;9.87;3.33;;;16.50;99.90;;;;;;4195149;28;20234;-73
2023/06/02 09:30:04;;;;;;;12.20;3.20;;;16.60;99.90;;;;;;4191352;28;20786;-72
2023/06/02 09:32:14;;;;;;;10.83;3.00;;;16.90;99.90;;;;;;4194633;28;20313;-74
2023/06/02 09:34:19;;;;;;;10.97;2.60;;;17.00;99.90;;;;;;4193310;28;20259;-75
2023/06/02 09:36:29;;;;;;;10.53;2.80;;;17.10;99.90;;;;;;4192710;28;20237;-75
2023/06/02 09:38:43;;;;;;;12.77;2.30;;;17.20;99.90;;;;;;4188430;28;20206;-75
2023/06/02 09:40:45;;;;;;;11.00;2.93;;;17.30;99.90;;;;;;4192095;28;20321;-73
2023/06/02 09:42:47;;;;;;;10.90;2.73;;;17.40;99.90;;;;;;4194427;28;20324;-73
2023/06/02 09:45:07;;;;;;;10.97;3.53;;;17.40;99.90;;;;;;4192720;28;20209;-73
2023/06/02 09:47:24;;;;;;;11.70;3.10;;;17.40;99.90;;;;;;4186934;28;20217;-73
2023/06/02 09:49:37;;;;;;;11.87;3.30;;;17.50;99.90;;;;;;4196619;28;20305;-73
2023/06/02 09:51:40;;;;;;;11.60;2.90;;;17.60;99.90;;;;;;4197481;28;20234;-73
2023/06/02 09:53:42;;;;;;;15.57;3.30;;;17.80;99.90;;;;;;4194750;28;20207;-73
2023/06/02 09:55:45;;;;;;;10.60;3.10;;;18.00;99.90;;;;;;4196291;28;20691;-76
2023/06/02 09:57:47;;;;;;;12.90;3.53;;;18.20;99.90;;;;;;4192740;28;20205;-75
2023/06/02 09:59:49;;;;;;;10.70;2.83;;;18.40;99.90;;;;;;4193796;28;20219;-74
2023/06/02 10:01:51;;;;;;;10.57;2.97;;;18.50;99.90;;;;;;4194631;28;20240;-76
2023/06/02 10:03:53;;;;;;;10.77;3.10;;;18.60;99.90;;;;;;4195282;28;20232;-75
2023/06/02 10:06:13;;;;;;;14.47;3.30;;;18.80;99.90;;;;;;4195343;28;20219;-76
2023/06/02 10:08:31;;;;;;;11.63;2.60;;;18.80;99.90;;;;;;4194697;28;20226;-76
2023/06/02 10:10:49;;;;;;;12.70;2.43;;;19.00;99.90;;;;;;4193327;28;20236;-76
2023/06/02 10:13:09;;;;;;;11.47;2.73;;;19.00;99.90;;;;;;4192339;28;20237;-72
2023/06/02 10:15:45;;;;;;;11.20;2.70;;;19.10;99.90;;;;;;4193866;28;20698;-72
2023/06/02 10:17:58;;;;;;;8.83;2.73;;;19.20;99.90;;;;;;4193039;28;20664;-75
2023/06/02 10:20:25;;;;;;;11.10;2.50;;;19.30;99.90;;;;;;4194540;28;20697;-75
2023/06/02 10:22:51;;;;;;;12.37;3.17;;;19.50;99.90;;;;;;4193801;28;20229;-74
2023/06/02 10:25:04;;;;;;;10.17;2.60;;;19.70;99.90;;;;;;4187590;28;20255;-75
2023/06/02 10:27:22;;;;;;;14.57;2.80;;;19.70;99.90;;;;;;4193088;28;20607;-76
2023/06/02 10:29:25;;;;;;;7.80;2.70;;;19.70;99.90;;;;;;4193521;28;20240;-75
2023/06/02 10:31:32;;;;;;;12.27;2.90;;;19.80;99.90;;;;;;4193760;28;20239;-75
2023/06/02 10:33:44;;;;;;;16.23;2.80;;;20.00;99.90;;;;;;4193010;28;20210;-77
2023/06/02 10:36:00;;;;;;;14.40;2.97;;;20.20;99.90;;;;;;4192589;28;20270;-75
2023/06/02 10:38:29;;;;;;;13.63;2.73;;;20.30;99.90;;;;;;4193690;28;20750;-75